CES1157 ZYBS-ZYBA
Flight info
| Callsign | CES1157 |
|---|---|
| Flight time | 1h 0m |
| Altitude | 30100 |
| Route | ZYBS DCT ZYBA |
| Aircraft | A320/L-SDE3FGHIRWY/L |
Departure
| Time | 2026-04-22 06:28 |
|---|---|
| Airport | Changbaishan Airport (ZYBS) |
Arrival
| Time | 2026-04-22 07:29 |
|---|---|
| Airport | Baicheng Chang'an Airport (ZYBA) |
| Time | Latitude | Longitude | Altitude | Speed | Heading |
|---|---|---|---|---|---|
| 2026-04-22 06:18 | 42.06483 | 127.60639 | 2903 ft | 4 kts | 101° |
| 2026-04-22 06:18 | 42.06491 | 127.60605 | 2906 ft | 4 kts | 122° |
| 2026-04-22 06:18 | 42.06508 | 127.60578 | 2906 ft | 4 kts | 148° |
| 2026-04-22 06:19 | 42.06529 | 127.60568 | 2906 ft | 1 kts | 185° |
| 2026-04-22 06:19 | 42.06530 | 127.60568 | 2906 ft | 1 kts | 185° |
| 2026-04-22 06:22 | 42.06529 | 127.60568 | 2906 ft | 2 kts | 185° |
| 2026-04-22 06:22 | 42.06481 | 127.60562 | 2906 ft | 8 kts | 185° |
| 2026-04-22 06:22 | 42.06431 | 127.60556 | 2906 ft | 6 kts | 185° |
| 2026-04-22 06:22 | 42.06394 | 127.60552 | 2906 ft | 5 kts | 185° |
| 2026-04-22 06:23 | 42.06354 | 127.60547 | 2906 ft | 7 kts | 185° |
| 2026-04-22 06:23 | 42.06313 | 127.60542 | 2906 ft | 7 kts | 185° |
| 2026-04-22 06:23 | 42.06260 | 127.60536 | 2906 ft | 7 kts | 185° |
| 2026-04-22 06:23 | 42.06216 | 127.60531 | 2906 ft | 5 kts | 185° |
| 2026-04-22 06:24 | 42.06141 | 127.60522 | 2906 ft | 10 kts | 185° |
| 2026-04-22 06:24 | 42.06075 | 127.60516 | 2906 ft | 7 kts | 185° |
| 2026-04-22 06:24 | 42.06041 | 127.60471 | 2906 ft | 9 kts | 261° |
| 2026-04-22 06:25 | 42.06041 | 127.60387 | 2905 ft | 9 kts | 253° |
| 2026-04-22 06:25 | 42.05984 | 127.60355 | 2905 ft | 9 kts | 185° |
| 2026-04-22 06:25 | 42.05906 | 127.60347 | 2905 ft | 17 kts | 184° |
| 2026-04-22 06:25 | 42.05772 | 127.60333 | 2905 ft | 20 kts | 185° |
| 2026-04-22 06:26 | 42.05658 | 127.60321 | 2906 ft | 14 kts | 184° |
| 2026-04-22 06:26 | 42.05570 | 127.60311 | 2906 ft | 12 kts | 186° |
| 2026-04-22 06:26 | 42.05532 | 127.60241 | 2906 ft | 10 kts | 271° |
| 2026-04-22 06:26 | 42.05538 | 127.60141 | 2906 ft | 11 kts | 275° |
| 2026-04-22 06:27 | 42.05584 | 127.60096 | 2904 ft | 11 kts | 9° |
| 2026-04-22 06:27 | 42.05668 | 127.60106 | 2906 ft | 17 kts | 5° |
| 2026-04-22 06:27 | 42.05872 | 127.60129 | 2906 ft | 44 kts | 4° |
| 2026-04-22 06:27 | 42.06436 | 127.60196 | 2906 ft | 116 kts | 5° |
| 2026-04-22 06:28 | 42.07436 | 127.60311 | 2976 ft | 165 kts | 5° |
| 2026-04-22 06:28 | 42.08591 | 127.60450 | 3693 ft | 170 kts | 360° |
| 2026-04-22 06:28 | 42.09790 | 127.60678 | 4402 ft | 183 kts | 12° |
| 2026-04-22 06:28 | 42.10859 | 127.61826 | 4678 ft | 219 kts | 52° |
| 2026-04-22 06:29 | 42.11548 | 127.63806 | 4895 ft | 248 kts | 66° |
| 2026-04-22 06:29 | 42.12113 | 127.66128 | 5272 ft | 273 kts | 69° |
| 2026-04-22 06:29 | 42.12960 | 127.68440 | 5882 ft | 278 kts | 46° |
| 2026-04-22 06:29 | 42.14441 | 127.70060 | 6711 ft | 273 kts | 20° |
| 2026-04-22 06:30 | 42.16268 | 127.70674 | 7575 ft | 265 kts | 355° |
| 2026-04-22 06:30 | 42.18052 | 127.70232 | 8426 ft | 260 kts | 332° |
| 2026-04-22 06:30 | 42.19616 | 127.69045 | 9335 ft | 258 kts | 324° |
| 2026-04-22 06:30 | 42.21154 | 127.67784 | 10207 ft | 260 kts | 324° |
| 2026-04-22 06:31 | 42.22754 | 127.66466 | 10576 ft | 281 kts | 324° |
| 2026-04-22 06:31 | 42.24489 | 127.65036 | 10833 ft | 302 kts | 325° |
| 2026-04-22 06:31 | 42.26308 | 127.63544 | 11467 ft | 308 kts | 325° |
| 2026-04-22 06:31 | 42.28149 | 127.62041 | 12278 ft | 309 kts | 325° |
| 2026-04-22 06:32 | 42.29993 | 127.60542 | 13120 ft | 309 kts | 324° |
| 2026-04-22 06:32 | 42.31837 | 127.59046 | 13959 ft | 309 kts | 324° |
| 2026-04-22 06:32 | 42.33675 | 127.57550 | 14690 ft | 309 kts | 324° |
| 2026-04-22 06:32 | 42.35524 | 127.56040 | 15357 ft | 312 kts | 324° |
| 2026-04-22 06:33 | 42.37386 | 127.54517 | 15988 ft | 314 kts | 324° |
| 2026-04-22 06:33 | 42.39267 | 127.52976 | 16615 ft | 318 kts | 323° |
| 2026-04-22 06:33 | 42.41165 | 127.51415 | 17244 ft | 321 kts | 323° |
| 2026-04-22 06:33 | 42.43080 | 127.49840 | 17849 ft | 324 kts | 323° |
| 2026-04-22 06:34 | 42.45012 | 127.48248 | 18413 ft | 327 kts | 323° |
| 2026-04-22 06:34 | 42.46963 | 127.46643 | 18930 ft | 330 kts | 323° |
| 2026-04-22 06:34 | 42.48934 | 127.45027 | 19450 ft | 332 kts | 323° |
| 2026-04-22 06:34 | 42.50916 | 127.43401 | 20028 ft | 334 kts | 322° |
| 2026-04-22 06:35 | 42.52903 | 127.41769 | 20602 ft | 334 kts | 322° |
| 2026-04-22 06:35 | 42.54896 | 127.40124 | 21132 ft | 337 kts | 322° |
| 2026-04-22 06:35 | 42.56901 | 127.38465 | 21644 ft | 339 kts | 322° |
| 2026-04-22 06:35 | 42.58924 | 127.36788 | 22135 ft | 342 kts | 321° |
| 2026-04-22 06:36 | 42.60960 | 127.35099 | 22613 ft | 345 kts | 321° |
| 2026-04-22 06:36 | 42.63013 | 127.33398 | 23092 ft | 347 kts | 321° |
| 2026-04-22 06:36 | 42.65085 | 127.31683 | 23568 ft | 350 kts | 321° |
| 2026-04-22 06:36 | 42.67172 | 127.29958 | 23945 ft | 352 kts | 321° |
| 2026-04-22 06:37 | 42.69269 | 127.28221 | 24324 ft | 354 kts | 321° |
| 2026-04-22 06:37 | 42.71374 | 127.26474 | 24717 ft | 356 kts | 321° |
| 2026-04-22 06:37 | 42.73492 | 127.24712 | 25099 ft | 357 kts | 321° |
| 2026-04-22 06:37 | 42.75647 | 127.22918 | 25457 ft | 359 kts | 321° |
| 2026-04-22 06:38 | 42.77781 | 127.21142 | 25827 ft | 361 kts | 320° |
| 2026-04-22 06:38 | 42.79932 | 127.19354 | 26207 ft | 363 kts | 321° |
| 2026-04-22 06:38 | 42.82094 | 127.17559 | 26587 ft | 365 kts | 321° |
| 2026-04-22 06:38 | 42.84265 | 127.15754 | 26945 ft | 366 kts | 321° |
| 2026-04-22 06:39 | 42.86446 | 127.13937 | 27303 ft | 368 kts | 320° |
| 2026-04-22 06:39 | 42.88636 | 127.12108 | 27647 ft | 370 kts | 320° |
| 2026-04-22 06:39 | 42.90836 | 127.10266 | 27986 ft | 372 kts | 320° |
| 2026-04-22 06:39 | 42.93047 | 127.08415 | 28313 ft | 374 kts | 320° |
| 2026-04-22 06:40 | 42.95270 | 127.06558 | 28629 ft | 375 kts | 320° |
| 2026-04-22 06:40 | 42.97500 | 127.04693 | 28956 ft | 377 kts | 320° |
| 2026-04-22 06:40 | 42.99738 | 127.02816 | 29283 ft | 378 kts | 320° |
| 2026-04-22 06:40 | 43.01986 | 127.00928 | 29586 ft | 379 kts | 320° |
| 2026-04-22 06:41 | 43.04236 | 126.99033 | 29880 ft | 381 kts | 320° |
| 2026-04-22 06:41 | 43.06499 | 126.97126 | 30038 ft | 381 kts | 320° |
| 2026-04-22 06:41 | 43.08728 | 126.95258 | 30064 ft | 373 kts | 320° |
| 2026-04-22 06:42 | 43.13121 | 126.91573 | 30068 ft | 369 kts | 320° |
| 2026-04-22 06:42 | 43.17484 | 126.87883 | 30069 ft | 368 kts | 320° |
| 2026-04-22 06:43 | 43.21830 | 126.84201 | 30064 ft | 367 kts | 320° |
| 2026-04-22 06:43 | 43.26172 | 126.80517 | 30064 ft | 367 kts | 320° |
| 2026-04-22 06:44 | 43.30513 | 126.76845 | 30060 ft | 366 kts | 320° |
| 2026-04-22 06:44 | 43.34849 | 126.73167 | 30060 ft | 366 kts | 320° |
| 2026-04-22 06:45 | 43.38476 | 126.70082 | 30068 ft | 366 kts | 320° |
| 2026-04-22 06:45 | 43.42790 | 126.66402 | 30060 ft | 364 kts | 320° |
| 2026-04-22 06:46 | 43.47109 | 126.62707 | 30113 ft | 366 kts | 320° |
| 2026-04-22 06:46 | 43.51432 | 126.59004 | 30109 ft | 366 kts | 320° |
| 2026-04-22 06:47 | 43.55753 | 126.55303 | 30091 ft | 365 kts | 320° |
| 2026-04-22 06:47 | 43.60063 | 126.51606 | 30082 ft | 364 kts | 320° |
| 2026-04-22 06:48 | 43.64367 | 126.47908 | 30073 ft | 365 kts | 320° |
| 2026-04-22 06:48 | 43.68669 | 126.44198 | 30067 ft | 365 kts | 320° |
| 2026-04-22 06:49 | 43.72974 | 126.40484 | 30071 ft | 364 kts | 320° |
| 2026-04-22 06:49 | 43.77276 | 126.36775 | 30069 ft | 364 kts | 320° |
| 2026-04-22 06:50 | 43.81564 | 126.33062 | 30105 ft | 364 kts | 320° |
| 2026-04-22 06:50 | 43.85849 | 126.29336 | 30098 ft | 363 kts | 320° |
| 2026-04-22 06:51 | 43.90157 | 126.25590 | 30087 ft | 363 kts | 320° |
| 2026-04-22 06:51 | 43.94437 | 126.21864 | 30082 ft | 363 kts | 321° |
| 2026-04-22 06:52 | 43.98719 | 126.18139 | 30081 ft | 363 kts | 321° |
| 2026-04-22 06:52 | 44.02997 | 126.14401 | 30081 ft | 363 kts | 321° |
| 2026-04-22 06:53 | 44.07272 | 126.10653 | 30072 ft | 363 kts | 320° |
| 2026-04-22 06:53 | 44.11547 | 126.06907 | 30073 ft | 363 kts | 321° |
| 2026-04-22 06:54 | 44.15822 | 126.03157 | 30107 ft | 363 kts | 321° |
| 2026-04-22 06:54 | 44.20091 | 125.99414 | 30098 ft | 363 kts | 321° |
| 2026-04-22 06:55 | 44.24357 | 125.95665 | 30092 ft | 362 kts | 321° |
| 2026-04-22 06:55 | 44.28681 | 125.91837 | 30080 ft | 373 kts | 321° |
| 2026-04-22 06:56 | 44.33081 | 125.87933 | 30080 ft | 375 kts | 321° |
| 2026-04-22 06:56 | 44.37502 | 125.84029 | 30077 ft | 376 kts | 321° |
| 2026-04-22 06:57 | 44.41919 | 125.80111 | 30080 ft | 376 kts | 321° |
| 2026-04-22 06:57 | 44.46334 | 125.76185 | 30077 ft | 376 kts | 321° |
| 2026-04-22 06:58 | 44.50750 | 125.72262 | 30105 ft | 375 kts | 321° |
| 2026-04-22 06:58 | 44.55183 | 125.68305 | 30093 ft | 375 kts | 321° |
| 2026-04-22 06:59 | 44.59572 | 125.64386 | 30083 ft | 375 kts | 321° |
| 2026-04-22 06:59 | 44.63964 | 125.60449 | 30066 ft | 374 kts | 321° |
| 2026-04-22 07:00 | 44.68355 | 125.56515 | 30059 ft | 374 kts | 321° |
| 2026-04-22 07:00 | 44.72743 | 125.52575 | 30055 ft | 374 kts | 321° |
| 2026-04-22 07:01 | 44.77125 | 125.48621 | 30053 ft | 374 kts | 321° |
| 2026-04-22 07:01 | 44.81515 | 125.44665 | 30089 ft | 375 kts | 321° |
| 2026-04-22 07:02 | 44.85909 | 125.40695 | 30078 ft | 375 kts | 321° |
| 2026-04-22 07:02 | 44.90301 | 125.36719 | 30068 ft | 375 kts | 321° |
| 2026-04-22 07:03 | 44.94695 | 125.32736 | 29691 ft | 376 kts | 321° |
| 2026-04-22 07:03 | 44.96896 | 125.30731 | 29116 ft | 376 kts | 321° |
| 2026-04-22 07:03 | 44.99089 | 125.28730 | 28547 ft | 374 kts | 321° |
| 2026-04-22 07:03 | 45.01254 | 125.26766 | 27996 ft | 365 kts | 322° |
| 2026-04-22 07:04 | 45.03369 | 125.24851 | 27451 ft | 358 kts | 322° |
| 2026-04-22 07:04 | 45.05445 | 125.22968 | 26918 ft | 351 kts | 322° |
| 2026-04-22 07:04 | 45.07431 | 125.21027 | 26398 ft | 342 kts | 316° |
| 2026-04-22 07:04 | 45.09081 | 125.18664 | 25885 ft | 334 kts | 307° |
| 2026-04-22 07:05 | 45.10345 | 125.15928 | 25389 ft | 331 kts | 298° |
| 2026-04-22 07:05 | 45.11207 | 125.12916 | 24869 ft | 331 kts | 290° |
| 2026-04-22 07:05 | 45.11797 | 125.09758 | 24379 ft | 332 kts | 289° |
| 2026-04-22 07:05 | 45.12381 | 125.06601 | 23902 ft | 331 kts | 289° |
| 2026-04-22 07:06 | 45.12971 | 125.03414 | 23405 ft | 329 kts | 289° |
| 2026-04-22 07:06 | 45.13550 | 125.00287 | 22841 ft | 327 kts | 289° |
| 2026-04-22 07:06 | 45.14123 | 124.97181 | 22281 ft | 325 kts | 289° |
| 2026-04-22 07:06 | 45.14692 | 124.94089 | 21744 ft | 323 kts | 289° |
| 2026-04-22 07:07 | 45.15253 | 124.91023 | 21209 ft | 321 kts | 289° |
| 2026-04-22 07:07 | 45.15811 | 124.87973 | 20686 ft | 319 kts | 289° |
| 2026-04-22 07:07 | 45.16367 | 124.84941 | 20172 ft | 317 kts | 289° |
| 2026-04-22 07:07 | 45.16919 | 124.81932 | 19673 ft | 315 kts | 290° |
| 2026-04-22 07:08 | 45.17467 | 124.78939 | 19172 ft | 313 kts | 290° |
| 2026-04-22 07:08 | 45.18011 | 124.75960 | 18664 ft | 312 kts | 290° |
| 2026-04-22 07:08 | 45.18550 | 124.72988 | 18184 ft | 311 kts | 290° |
| 2026-04-22 07:08 | 45.19085 | 124.70026 | 17626 ft | 310 kts | 290° |
| 2026-04-22 07:09 | 45.19620 | 124.67071 | 17087 ft | 309 kts | 290° |
| 2026-04-22 07:09 | 45.20152 | 124.64129 | 16548 ft | 307 kts | 290° |
| 2026-04-22 07:09 | 45.20682 | 124.61199 | 16028 ft | 306 kts | 290° |
| 2026-04-22 07:09 | 45.21208 | 124.58280 | 15508 ft | 305 kts | 290° |
| 2026-04-22 07:10 | 45.21733 | 124.55368 | 14996 ft | 305 kts | 290° |
| 2026-04-22 07:10 | 45.22256 | 124.52458 | 14490 ft | 304 kts | 290° |
| 2026-04-22 07:10 | 45.22777 | 124.49558 | 13998 ft | 303 kts | 290° |
| 2026-04-22 07:10 | 45.23297 | 124.46668 | 13477 ft | 302 kts | 290° |
| 2026-04-22 07:11 | 45.23816 | 124.43780 | 12927 ft | 302 kts | 289° |
| 2026-04-22 07:11 | 45.24332 | 124.40897 | 12392 ft | 302 kts | 289° |
| 2026-04-22 07:11 | 45.24848 | 124.38003 | 11838 ft | 303 kts | 288° |
| 2026-04-22 07:11 | 45.25359 | 124.35111 | 11315 ft | 302 kts | 287° |
| 2026-04-22 07:12 | 45.25870 | 124.32214 | 10797 ft | 303 kts | 287° |
| 2026-04-22 07:12 | 45.26383 | 124.29311 | 10281 ft | 304 kts | 286° |
| 2026-04-22 07:12 | 45.26900 | 124.26402 | 9988 ft | 304 kts | 285° |
| 2026-04-22 07:12 | 45.27405 | 124.23565 | 9948 ft | 288 kts | 285° |
| 2026-04-22 07:13 | 45.27880 | 124.20876 | 9842 ft | 276 kts | 285° |
| 2026-04-22 07:13 | 45.28338 | 124.18269 | 9620 ft | 268 kts | 285° |
| 2026-04-22 07:13 | 45.28789 | 124.15701 | 9400 ft | 262 kts | 285° |
| 2026-04-22 07:13 | 45.29229 | 124.13195 | 9176 ft | 261 kts | 285° |
| 2026-04-22 07:14 | 45.29667 | 124.10701 | 8965 ft | 260 kts | 285° |
| 2026-04-22 07:14 | 45.30103 | 124.08221 | 8741 ft | 259 kts | 285° |
| 2026-04-22 07:14 | 45.30538 | 124.05741 | 8526 ft | 259 kts | 285° |
| 2026-04-22 07:14 | 45.30971 | 124.03268 | 8310 ft | 257 kts | 285° |
| 2026-04-22 07:15 | 45.31400 | 124.00804 | 8088 ft | 256 kts | 285° |
| 2026-04-22 07:15 | 45.31826 | 123.98354 | 7868 ft | 256 kts | 285° |
| 2026-04-22 07:15 | 45.32253 | 123.95901 | 7661 ft | 255 kts | 285° |
| 2026-04-22 07:15 | 45.32678 | 123.93452 | 7448 ft | 255 kts | 285° |
| 2026-04-22 07:16 | 45.33100 | 123.91011 | 7238 ft | 254 kts | 285° |
| 2026-04-22 07:16 | 45.33522 | 123.88570 | 7035 ft | 254 kts | 285° |
| 2026-04-22 07:16 | 45.33944 | 123.86141 | 6831 ft | 253 kts | 285° |
| 2026-04-22 07:16 | 45.34365 | 123.83715 | 6625 ft | 252 kts | 285° |
| 2026-04-22 07:17 | 45.34784 | 123.81295 | 6457 ft | 252 kts | 285° |
| 2026-04-22 07:17 | 45.35202 | 123.78881 | 6296 ft | 251 kts | 285° |
| 2026-04-22 07:17 | 45.35616 | 123.76472 | 6144 ft | 251 kts | 285° |
| 2026-04-22 07:17 | 45.36027 | 123.74069 | 5987 ft | 249 kts | 285° |
| 2026-04-22 07:18 | 45.36297 | 123.72482 | 5876 ft | 249 kts | 285° |
| 2026-04-22 07:18 | 45.36843 | 123.69284 | 5667 ft | 249 kts | 285° |
| 2026-04-22 07:18 | 45.37115 | 123.67697 | 5557 ft | 249 kts | 285° |
| 2026-04-22 07:18 | 45.37670 | 123.64502 | 5352 ft | 248 kts | 286° |
| 2026-04-22 07:19 | 45.37967 | 123.62896 | 5250 ft | 248 kts | 287° |
| 2026-04-22 07:19 | 45.38418 | 123.60531 | 5095 ft | 248 kts | 287° |
| 2026-04-22 07:19 | 45.38873 | 123.58166 | 4940 ft | 247 kts | 287° |
| 2026-04-22 07:19 | 45.39326 | 123.55809 | 4780 ft | 247 kts | 287° |
| 2026-04-22 07:20 | 45.39775 | 123.53451 | 4626 ft | 246 kts | 287° |
| 2026-04-22 07:20 | 45.40218 | 123.51108 | 4469 ft | 244 kts | 287° |
| 2026-04-22 07:20 | 45.40654 | 123.48783 | 4310 ft | 244 kts | 287° |
| 2026-04-22 07:20 | 45.41090 | 123.46444 | 4152 ft | 245 kts | 286° |
| 2026-04-22 07:21 | 45.41526 | 123.44113 | 3996 ft | 243 kts | 286° |
| 2026-04-22 07:21 | 45.41960 | 123.41788 | 3841 ft | 244 kts | 286° |
| 2026-04-22 07:21 | 45.42397 | 123.39446 | 3677 ft | 244 kts | 287° |
| 2026-04-22 07:21 | 45.43035 | 123.37232 | 3535 ft | 241 kts | 301° |
| 2026-04-22 07:22 | 45.44082 | 123.35377 | 3379 ft | 242 kts | 317° |
| 2026-04-22 07:22 | 45.45439 | 123.33965 | 3230 ft | 241 kts | 326° |
| 2026-04-22 07:22 | 45.46817 | 123.32709 | 3097 ft | 230 kts | 326° |
| 2026-04-22 07:22 | 45.48162 | 123.31471 | 3014 ft | 230 kts | 326° |
| 2026-04-22 07:23 | 45.49505 | 123.30229 | 3009 ft | 230 kts | 325° |
| 2026-04-22 07:23 | 45.50847 | 123.28987 | 3012 ft | 232 kts | 325° |
| 2026-04-22 07:23 | 45.52189 | 123.27747 | 3013 ft | 225 kts | 325° |
| 2026-04-22 07:23 | 45.53489 | 123.26543 | 3012 ft | 222 kts | 326° |
| 2026-04-22 07:24 | 45.54791 | 123.25335 | 3015 ft | 224 kts | 325° |
| 2026-04-22 07:24 | 45.56101 | 123.24119 | 3016 ft | 224 kts | 326° |
| 2026-04-22 07:24 | 45.57369 | 123.22943 | 3020 ft | 209 kts | 326° |
| 2026-04-22 07:24 | 45.58418 | 123.21635 | 2977 ft | 198 kts | 300° |
| 2026-04-22 07:25 | 45.58577 | 123.19757 | 2837 ft | 196 kts | 255° |
| 2026-04-22 07:25 | 45.57933 | 123.18052 | 2701 ft | 194 kts | 243° |
| 2026-04-22 07:25 | 45.57189 | 123.16428 | 2572 ft | 191 kts | 242° |
| 2026-04-22 07:25 | 45.56482 | 123.14924 | 2469 ft | 173 kts | 242° |
| 2026-04-22 07:26 | 45.55843 | 123.13567 | 2358 ft | 157 kts | 242° |
| 2026-04-22 07:26 | 45.55254 | 123.12304 | 2119 ft | 149 kts | 243° |
| 2026-04-22 07:26 | 45.54707 | 123.11119 | 1908 ft | 140 kts | 243° |
| 2026-04-22 07:26 | 45.54178 | 123.09963 | 1703 ft | 138 kts | 243° |
| 2026-04-22 07:27 | 45.53657 | 123.08815 | 1485 ft | 137 kts | 242° |
| 2026-04-22 07:27 | 45.53143 | 123.07675 | 1294 ft | 137 kts | 243° |
| 2026-04-22 07:27 | 45.52622 | 123.06530 | 1102 ft | 138 kts | 240° |
| 2026-04-22 07:27 | 45.52096 | 123.05401 | 911 ft | 136 kts | 241° |
| 2026-04-22 07:28 | 45.51073 | 123.03171 | 489 ft | 133 kts | 242° |
| 2026-04-22 07:28 | 45.50622 | 123.02166 | 472 ft | 100 kts | 237° |
| 2026-04-22 07:28 | 45.50336 | 123.01548 | 472 ft | 50 kts | 237° |
| 2026-04-22 07:29 | 45.50228 | 123.01320 | 474 ft | 15 kts | 227° |
| 2026-04-22 07:29 | 45.50184 | 123.01254 | 472 ft | 2 kts | 313° |
| 2026-04-22 07:29 | 45.50209 | 123.01281 | 472 ft | 12 kts | 50° |
| 2026-04-22 07:29 | 45.50288 | 123.01451 | 470 ft | 28 kts | 58° |
| 2026-04-22 07:30 | 45.50401 | 123.01690 | 472 ft | 30 kts | 58° |
| 2026-04-22 07:30 | 45.50492 | 123.01891 | 468 ft | 19 kts | 57° |
| 2026-04-22 07:30 | 45.50566 | 123.01943 | 472 ft | 12 kts | 342° |
| 2026-04-22 07:30 | 45.50642 | 123.01876 | 471 ft | 14 kts | 327° |
| 2026-04-22 07:31 | 45.50705 | 123.01793 | 472 ft | 11 kts | 272° |
| 2026-04-22 07:31 | 45.50726 | 123.01707 | 471 ft | 8 kts | 322° |
| 2026-04-22 07:31 | 45.50745 | 123.01689 | 472 ft | 0 kts | 325° |
| 2026-04-22 07:33 | 45.54566 | 123.10813 | 1868 ft | 140 kts | 243° |
| 2026-04-22 07:33 | 45.52797 | 123.06906 | 1161 ft | 140 kts | 242° |
| 2026-04-22 07:34 | 45.52051 | 123.05340 | 891 ft | 137 kts | 239° |
| 2026-04-22 07:34 | 45.51683 | 123.04604 | 754 ft | 133 kts | 244° |
| 2026-04-22 07:34 | 45.51212 | 123.03481 | 554 ft | 133 kts | 244° |
| 2026-04-22 07:34 | 45.50735 | 123.02413 | 469 ft | 116 kts | 240° |
| 2026-04-22 07:35 | 45.52193 | 123.05641 | 946 ft | 133 kts | 244° |
| 2026-04-22 07:35 | 45.51690 | 123.04546 | 739 ft | 131 kts | 244° |
| 2026-04-22 07:35 | 45.51196 | 123.03452 | 534 ft | 131 kts | 244° |
| 2026-04-22 07:36 | 45.51574 | 123.04299 | 688 ft | 132 kts | 245° |
| 2026-04-22 07:36 | 45.51084 | 123.03186 | 517 ft | 134 kts | 241° |
| 2026-04-22 07:36 | 45.57854 | 123.17875 | 2692 ft | 193 kts | 243° |
| 2026-04-22 07:36 | 45.51514 | 123.04125 | 662 ft | 133 kts | 243° |
| 2026-04-22 07:37 | 45.51006 | 123.03013 | 478 ft | 131 kts | 239° |
| 2026-04-22 07:37 | 45.57867 | 123.17905 | 2693 ft | 192 kts | 243° |
| 2026-04-22 07:37 | 45.51559 | 123.04244 | 681 ft | 133 kts | 242° |
| 2026-04-22 07:37 | 45.51060 | 123.03144 | 488 ft | 132 kts | 243° |
| 2026-04-22 07:38 | 45.57865 | 123.17899 | 2693 ft | 193 kts | 243° |
| 2026-04-22 07:38 | 45.51528 | 123.04184 | 673 ft | 132 kts | 244° |
| 2026-04-22 07:38 | 45.51034 | 123.03081 | 473 ft | 131 kts | 241° |
| 2026-04-22 07:38 | 45.52241 | 123.05710 | 969 ft | 136 kts | 240° |
| 2026-04-22 07:39 | 45.51736 | 123.04629 | 767 ft | 133 kts | 244° |
| 2026-04-22 07:39 | 45.51234 | 123.03523 | 563 ft | 133 kts | 242° |
| 2026-04-22 07:39 | 45.50749 | 123.02451 | 473 ft | 118 kts | 235° |
| 2026-04-22 07:39 | 45.57863 | 123.17895 | 2693 ft | 192 kts | 243° |
| 2026-04-22 07:40 | 45.51488 | 123.04075 | 659 ft | 134 kts | 241° |
| 2026-04-22 07:40 | 45.50981 | 123.02958 | 478 ft | 132 kts | 238° |
| 2026-04-22 07:40 | 45.51890 | 123.04961 | 823 ft | 134 kts | 242° |
| 2026-04-22 07:40 | 45.51392 | 123.03856 | 621 ft | 133 kts | 242° |
| 2026-04-22 07:41 | 45.50886 | 123.02760 | 473 ft | 126 kts | 242° |
| 2026-04-22 07:41 | 45.51761 | 123.04681 | 779 ft | 133 kts | 243° |
| 2026-04-22 07:41 | 45.51260 | 123.03590 | 572 ft | 131 kts | 245° |
| 2026-04-22 07:41 | 45.50782 | 123.02523 | 474 ft | 117 kts | 236° |
| 2026-04-22 07:42 | 45.51861 | 123.04893 | 816 ft | 134 kts | 242° |
| 2026-04-22 07:42 | 45.51354 | 123.03788 | 592 ft | 133 kts | 244° |
| 2026-04-22 07:42 | 45.50862 | 123.02710 | 470 ft | 121 kts | 243° |
| 2026-04-22 07:42 | 45.51935 | 123.05064 | 838 ft | 133 kts | 242° |
| 2026-04-22 07:43 | 45.51432 | 123.03964 | 644 ft | 133 kts | 242° |
| 2026-04-22 07:43 | 45.50934 | 123.02855 | 475 ft | 127 kts | 234° |
| 2026-04-22 07:43 | 45.50499 | 123.01908 | 473 ft | 102 kts | 236° |
| 2026-04-22 07:43 | 45.51574 | 123.04274 | 686 ft | 133 kts | 242° |
| 2026-04-22 07:44 | 45.51069 | 123.03162 | 487 ft | 134 kts | 242° |
| 2026-04-22 07:44 | 45.51555 | 123.04234 | 693 ft | 133 kts | 243° |
| 2026-04-22 07:44 | 45.51060 | 123.03142 | 481 ft | 131 kts | 244° |
| 2026-04-22 07:44 | 45.56327 | 123.14596 | 2491 ft | 177 kts | 242° |
| 2026-04-22 07:45 | 45.51484 | 123.04078 | 661 ft | 134 kts | 242° |
| 2026-04-22 07:45 | 45.50977 | 123.02966 | 474 ft | 132 kts | 241° |
| 2026-04-22 07:45 | 45.51783 | 123.04728 | 784 ft | 134 kts | 241° |
| 2026-04-22 07:45 | 45.51284 | 123.03617 | 592 ft | 135 kts | 240° |
| 2026-04-22 07:46 | 45.50778 | 123.02518 | 472 ft | 124 kts | 236° |
| 2026-04-22 07:46 | 45.51656 | 123.04448 | 735 ft | 133 kts | 242° |
| 2026-04-22 07:46 | 45.51151 | 123.03345 | 532 ft | 133 kts | 244° |
| 2026-04-22 07:46 | 45.50671 | 123.02283 | 474 ft | 116 kts | 236° |
| 2026-04-22 07:47 | 45.51810 | 123.04800 | 799 ft | 132 kts | 243° |